sensor_id;sensor_type;location;lat;lon;timestamp;P1;durP1;ratioP1;P2;durP2;ratioP2
23517;SDS011;11935;50.878;4.392;2023-04-15T00:01:36;5.28;;;2.60;;
23517;SDS011;11935;50.878;4.392;2023-04-15T00:04:02;7.95;;;3.00;;
23517;SDS011;11935;50.878;4.392;2023-04-15T00:06:29;5.63;;;3.03;;
23517;SDS011;11935;50.878;4.392;2023-04-15T00:08:55;4.82;;;2.67;;
23517;SDS011;11935;50.878;4.392;2023-04-15T00:11:21;9.38;;;2.67;;
23517;SDS011;11935;50.878;4.392;2023-04-15T00:13:48;5.70;;;3.00;;
23517;SDS011;11935;50.878;4.392;2023-04-15T00:16:14;5.53;;;3.00;;
23517;SDS011;11935;50.878;4.392;2023-04-15T00:18:40;4.20;;;2.63;;
23517;SDS011;11935;50.878;4.392;2023-04-15T00:21:06;6.75;;;3.20;;
23517;SDS011;11935;50.878;4.392;2023-04-15T00:23:33;5.50;;;2.67;;
23517;SDS011;11935;50.878;4.392;2023-04-15T00:26:00;4.50;;;2.88;;
23517;SDS011;11935;50.878;4.392;2023-04-15T00:28:26;3.95;;;2.67;;
23517;SDS011;11935;50.878;4.392;2023-04-15T00:30:53;3.63;;;2.50;;
23517;SDS011;11935;50.878;4.392;2023-04-15T00:33:19;6.90;;;2.72;;
23517;SDS011;11935;50.878;4.392;2023-04-15T00:35:45;5.68;;;3.15;;
23517;SDS011;11935;50.878;4.392;2023-04-15T00:38:11;3.78;;;2.58;;
23517;SDS011;11935;50.878;4.392;2023-04-15T00:40:37;7.78;;;2.40;;
23517;SDS011;11935;50.878;4.392;2023-04-15T00:43:03;4.80;;;2.65;;
23517;SDS011;11935;50.878;4.392;2023-04-15T00:45:30;4.50;;;3.00;;
23517;SDS011;11935;50.878;4.392;2023-04-15T00:47:56;7.38;;;2.75;;
23517;SDS011;11935;50.878;4.392;2023-04-15T00:50:22;5.72;;;1.92;;
23517;SDS011;11935;50.878;4.392;2023-04-15T00:52:48;3.25;;;1.65;;
23517;SDS011;11935;50.878;4.392;2023-04-15T00:55:14;3.42;;;1.88;;
23517;SDS011;11935;50.878;4.392;2023-04-15T00:57:40;3.05;;;1.73;;
23517;SDS011;11935;50.878;4.392;2023-04-15T01:00:07;4.32;;;1.75;;
23517;SDS011;11935;50.878;4.392;2023-04-15T01:02:35;2.92;;;1.88;;
23517;SDS011;11935;50.878;4.392;2023-04-15T01:05:01;3.40;;;1.77;;
23517;SDS011;11935;50.878;4.392;2023-04-15T01:07:31;3.53;;;1.85;;
23517;SDS011;11935;50.878;4.392;2023-04-15T01:09:57;2.28;;;1.60;;
23517;SDS011;11935;50.878;4.392;2023-04-15T01:12:24;2.80;;;1.77;;
23517;SDS011;11935;50.878;4.392;2023-04-15T01:14:52;3.10;;;1.93;;
23517;SDS011;11935;50.878;4.392;2023-04-15T01:17:18;2.53;;;1.30;;
23517;SDS011;11935;50.878;4.392;2023-04-15T01:19:44;2.10;;;1.40;;
23517;SDS011;11935;50.878;4.392;2023-04-15T01:22:11;4.63;;;1.50;;
23517;SDS011;11935;50.878;4.392;2023-04-15T01:24:37;2.58;;;1.58;;
23517;SDS011;11935;50.878;4.392;2023-04-15T01:27:04;2.83;;;1.30;;
23517;SDS011;11935;50.878;4.392;2023-04-15T01:29:30;3.50;;;1.40;;
23517;SDS011;11935;50.878;4.392;2023-04-15T01:31:57;2.20;;;1.38;;
23517;SDS011;11935;50.878;4.392;2023-04-15T01:34:23;6.05;;;1.70;;
23517;SDS011;11935;50.878;4.392;2023-04-15T01:36:49;1.90;;;1.20;;
23517;SDS011;11935;50.878;4.392;2023-04-15T01:39:15;4.75;;;1.60;;
23517;SDS011;11935;50.878;4.392;2023-04-15T01:41:41;5.60;;;1.70;;
23517;SDS011;11935;50.878;4.392;2023-04-15T01:44:08;3.00;;;1.50;;
23517;SDS011;11935;50.878;4.392;2023-04-15T01:46:34;4.57;;;1.83;;
23517;SDS011;11935;50.878;4.392;2023-04-15T01:49:01;3.05;;;1.92;;
23517;SDS011;11935;50.878;4.392;2023-04-15T01:51:27;3.97;;;2.00;;
23517;SDS011;11935;50.878;4.392;2023-04-15T01:53:53;3.60;;;2.20;;
23517;SDS011;11935;50.878;4.392;2023-04-15T01:56:21;3.95;;;2.20;;
23517;SDS011;11935;50.878;4.392;2023-04-15T01:58:50;5.70;;;2.55;;
23517;SDS011;11935;50.878;4.392;2023-04-15T02:01:16;8.02;;;3.47;;
23517;SDS011;11935;50.878;4.392;2023-04-15T02:03:44;8.30;;;4.05;;
23517;SDS011;11935;50.878;4.392;2023-04-15T02:06:10;8.90;;;4.20;;
23517;SDS011;11935;50.878;4.392;2023-04-15T02:08:36;9.55;;;4.40;;
23517;SDS011;11935;50.878;4.392;2023-04-15T02:11:03;10.23;;;4.78;;
23517;SDS011;11935;50.878;4.392;2023-04-15T02:13:29;12.20;;;5.40;;
23517;SDS011;11935;50.878;4.392;2023-04-15T02:15:55;12.20;;;5.50;;
23517;SDS011;11935;50.878;4.392;2023-04-15T02:18:21;14.73;;;6.22;;
23517;SDS011;11935;50.878;4.392;2023-04-15T02:20:49;14.18;;;5.95;;
23517;SDS011;11935;50.878;4.392;2023-04-15T02:23:16;14.60;;;5.20;;
23517;SDS011;11935;50.878;4.392;2023-04-15T02:25:42;13.48;;;6.15;;
23517;SDS011;11935;50.878;4.392;2023-04-15T02:28:08;13.15;;;5.75;;
23517;SDS011;11935;50.878;4.392;2023-04-15T02:30:34;18.63;;;5.93;;
23517;SDS011;11935;50.878;4.392;2023-04-15T02:33:00;16.10;;;6.30;;
23517;SDS011;11935;50.878;4.392;2023-04-15T02:35:27;17.75;;;7.15;;
23517;SDS011;11935;50.878;4.392;2023-04-15T02:37:53;15.95;;;7.00;;
23517;SDS011;11935;50.878;4.392;2023-04-15T02:40:19;20.60;;;7.68;;
23517;SDS011;11935;50.878;4.392;2023-04-15T02:42:45;18.98;;;7.53;;
23517;SDS011;11935;50.878;4.392;2023-04-15T02:45:12;22.67;;;7.63;;
23517;SDS011;11935;50.878;4.392;2023-04-15T02:47:38;23.88;;;8.48;;
23517;SDS011;11935;50.878;4.392;2023-04-15T02:50:07;20.38;;;8.43;;
23517;SDS011;11935;50.878;4.392;2023-04-15T02:52:33;23.80;;;10.18;;
23517;SDS011;11935;50.878;4.392;2023-04-15T02:55:00;28.35;;;10.02;;
23517;SDS011;11935;50.878;4.392;2023-04-15T02:57:26;21.10;;;8.98;;
23517;SDS011;11935;50.878;4.392;2023-04-15T02:59:53;22.70;;;8.77;;
23517;SDS011;11935;50.878;4.392;2023-04-15T03:02:20;23.08;;;9.30;;
23517;SDS011;11935;50.878;4.392;2023-04-15T03:04:46;25.23;;;9.48;;
23517;SDS011;11935;50.878;4.392;2023-04-15T03:07:12;21.90;;;8.13;;
23517;SDS011;11935;50.878;4.392;2023-04-15T03:09:38;18.20;;;8.65;;
23517;SDS011;11935;50.878;4.392;2023-04-15T03:12:05;21.50;;;8.75;;
23517;SDS011;11935;50.878;4.392;2023-04-15T03:14:31;17.92;;;7.60;;
23517;SDS011;11935;50.878;4.392;2023-04-15T03:16:57;18.85;;;8.10;;
23517;SDS011;11935;50.878;4.392;2023-04-15T03:19:23;23.20;;;8.35;;
23517;SDS011;11935;50.878;4.392;2023-04-15T03:21:50;16.90;;;7.22;;
23517;SDS011;11935;50.878;4.392;2023-04-15T03:24:16;16.48;;;7.32;;
23517;SDS011;11935;50.878;4.392;2023-04-15T03:26:42;13.98;;;6.38;;
23517;SDS011;11935;50.878;4.392;2023-04-15T03:29:08;15.57;;;6.97;;
23517;SDS011;11935;50.878;4.392;2023-04-15T03:31:34;13.70;;;6.72;;
23517;SDS011;11935;50.878;4.392;2023-04-15T03:34:00;14.32;;;6.65;;
23517;SDS011;11935;50.878;4.392;2023-04-15T03:36:28;14.63;;;6.68;;
23517;SDS011;11935;50.878;4.392;2023-04-15T03:38:56;14.32;;;6.30;;
23517;SDS011;11935;50.878;4.392;2023-04-15T03:41:22;11.73;;;6.25;;
23517;SDS011;11935;50.878;4.392;2023-04-15T03:43:48;11.88;;;6.00;;
23517;SDS011;11935;50.878;4.392;2023-04-15T03:46:16;11.73;;;6.00;;
23517;SDS011;11935;50.878;4.392;2023-04-15T03:48:42;9.75;;;5.38;;
23517;SDS011;11935;50.878;4.392;2023-04-15T03:51:08;12.35;;;6.35;;
23517;SDS011;11935;50.878;4.392;2023-04-15T03:53:34;9.77;;;5.40;;
23517;SDS011;11935;50.878;4.392;2023-04-15T03:56:01;10.52;;;5.75;;
23517;SDS011;11935;50.878;4.392;2023-04-15T03:58:27;10.02;;;5.78;;
23517;SDS011;11935;50.878;4.392;2023-04-15T04:00:53;10.15;;;5.40;;
23517;SDS011;11935;50.878;4.392;2023-04-15T04:03:19;13.70;;;6.18;;
23517;SDS011;11935;50.878;4.392;2023-04-15T04:05:45;12.68;;;5.85;;
23517;SDS011;11935;50.878;4.392;2023-04-15T04:08:11;10.45;;;5.90;;
23517;SDS011;11935;50.878;4.392;2023-04-15T04:10:38;10.75;;;6.38;;
23517;SDS011;11935;50.878;4.392;2023-04-15T04:13:04;11.00;;;5.53;;
23517;SDS011;11935;50.878;4.392;2023-04-15T04:15:30;11.15;;;5.53;;
23517;SDS011;11935;50.878;4.392;2023-04-15T04:17:56;7.47;;;5.80;;
23517;SDS011;11935;50.878;4.392;2023-04-15T04:20:22;13.95;;;6.10;;
23517;SDS011;11935;50.878;4.392;2023-04-15T04:22:48;11.10;;;6.00;;
23517;SDS011;11935;50.878;4.392;2023-04-15T04:25:14;11.65;;;6.53;;
23517;SDS011;11935;50.878;4.392;2023-04-15T04:27:41;10.15;;;6.15;;
23517;SDS011;11935;50.878;4.392;2023-04-15T04:30:07;9.02;;;6.00;;
23517;SDS011;11935;50.878;4.392;2023-04-15T04:32:33;11.43;;;6.60;;
23517;SDS011;11935;50.878;4.392;2023-04-15T04:34:59;10.95;;;5.70;;
23517;SDS011;11935;50.878;4.392;2023-04-15T04:37:25;8.95;;;5.43;;
23517;SDS011;11935;50.878;4.392;2023-04-15T04:39:51;13.00;;;5.38;;
23517;SDS011;11935;50.878;4.392;2023-04-15T04:42:17;11.45;;;5.57;;
23517;SDS011;11935;50.878;4.392;2023-04-15T04:44:43;7.65;;;4.60;;
23517;SDS011;11935;50.878;4.392;2023-04-15T04:47:10;10.65;;;5.38;;
23517;SDS011;11935;50.878;4.392;2023-04-15T04:49:36;9.23;;;5.85;;
23517;SDS011;11935;50.878;4.392;2023-04-15T04:52:02;12.02;;;5.80;;
23517;SDS011;11935;50.878;4.392;2023-04-15T04:54:28;9.80;;;5.75;;
23517;SDS011;11935;50.878;4.392;2023-04-15T04:56:55;8.18;;;5.03;;
23517;SDS011;11935;50.878;4.392;2023-04-15T04:59:22;16.08;;;5.82;;
23517;SDS011;11935;50.878;4.392;2023-04-15T05:01:48;8.57;;;5.20;;
23517;SDS011;11935;50.878;4.392;2023-04-15T05:04:14;9.85;;;4.63;;
23517;SDS011;11935;50.878;4.392;2023-04-15T05:06:40;10.00;;;5.15;;
23517;SDS011;11935;50.878;4.392;2023-04-15T05:09:06;8.32;;;5.13;;
23517;SDS011;11935;50.878;4.392;2023-04-15T05:11:32;11.05;;;4.47;;
23517;SDS011;11935;50.878;4.392;2023-04-15T05:13:58;10.05;;;4.85;;
23517;SDS011;11935;50.878;4.392;2023-04-15T05:16:26;7.93;;;4.47;;
23517;SDS011;11935;50.878;4.392;2023-04-15T05:18:52;8.85;;;5.00;;
23517;SDS011;11935;50.878;4.392;2023-04-15T05:21:18;9.50;;;5.05;;
23517;SDS011;11935;50.878;4.392;2023-04-15T05:23:45;10.45;;;5.30;;
23517;SDS011;11935;50.878;4.392;2023-04-15T05:26:11;8.35;;;5.22;;
23517;SDS011;11935;50.878;4.392;2023-04-15T05:28:37;10.73;;;4.93;;
23517;SDS011;11935;50.878;4.392;2023-04-15T05:31:03;10.18;;;4.45;;
23517;SDS011;11935;50.878;4.392;2023-04-15T05:33:29;9.85;;;4.70;;
23517;SDS011;11935;50.878;4.392;2023-04-15T05:35:55;8.73;;;4.90;;
23517;SDS011;11935;50.878;4.392;2023-04-15T05:38:21;9.35;;;5.80;;
23517;SDS011;11935;50.878;4.392;2023-04-15T05:40:47;9.15;;;4.88;;
23517;SDS011;11935;50.878;4.392;2023-04-15T05:43:13;8.13;;;4.68;;
23517;SDS011;11935;50.878;4.392;2023-04-15T05:45:39;11.93;;;5.35;;
23517;SDS011;11935;50.878;4.392;2023-04-15T05:48:06;9.45;;;5.05;;
23517;SDS011;11935;50.878;4.392;2023-04-15T05:50:32;6.88;;;4.60;;
23517;SDS011;11935;50.878;4.392;2023-04-15T05:52:58;9.13;;;4.90;;
23517;SDS011;11935;50.878;4.392;2023-04-15T05:55:25;8.70;;;5.30;;
23517;SDS011;11935;50.878;4.392;2023-04-15T05:57:51;15.43;;;4.50;;
23517;SDS011;11935;50.878;4.392;2023-04-15T06:00:17;8.70;;;4.10;;
23517;SDS011;11935;50.878;4.392;2023-04-15T06:02:44;10.15;;;4.75;;
23517;SDS011;11935;50.878;4.392;2023-04-15T06:05:10;10.75;;;5.03;;
23517;SDS011;11935;50.878;4.392;2023-04-15T06:07:37;7.05;;;4.43;;
23517;SDS011;11935;50.878;4.392;2023-04-15T06:10:03;11.60;;;5.85;;
23517;SDS011;11935;50.878;4.392;2023-04-15T06:12:29;11.63;;;5.40;;
23517;SDS011;11935;50.878;4.392;2023-04-15T06:14:56;12.90;;;4.78;;
23517;SDS011;11935;50.878;4.392;2023-04-15T06:17:22;11.68;;;5.35;;
23517;SDS011;11935;50.878;4.392;2023-04-15T06:19:48;10.57;;;5.05;;
23517;SDS011;11935;50.878;4.392;2023-04-15T06:22:19;9.45;;;4.90;;
23517;SDS011;11935;50.878;4.392;2023-04-15T06:24:46;10.15;;;4.85;;
23517;SDS011;11935;50.878;4.392;2023-04-15T06:27:12;7.88;;;4.40;;
23517;SDS011;11935;50.878;4.392;2023-04-15T06:29:38;9.90;;;4.57;;
23517;SDS011;11935;50.878;4.392;2023-04-15T06:32:05;9.68;;;4.65;;
23517;SDS011;11935;50.878;4.392;2023-04-15T06:34:31;8.60;;;3.90;;
23517;SDS011;11935;50.878;4.392;2023-04-15T06:36:57;7.80;;;4.53;;
23517;SDS011;11935;50.878;4.392;2023-04-15T06:39:23;5.32;;;3.25;;
23517;SDS011;11935;50.878;4.392;2023-04-15T06:41:49;8.63;;;4.50;;
23517;SDS011;11935;50.878;4.392;2023-04-15T06:44:15;8.30;;;4.50;;
23517;SDS011;11935;50.878;4.392;2023-04-15T06:46:41;12.18;;;4.55;;
23517;SDS011;11935;50.878;4.392;2023-04-15T06:49:07;7.30;;;4.05;;
23517;SDS011;11935;50.878;4.392;2023-04-15T06:51:34;10.23;;;4.47;;
23517;SDS011;11935;50.878;4.392;2023-04-15T06:54:00;7.35;;;4.60;;
23517;SDS011;11935;50.878;4.392;2023-04-15T06:56:29;8.25;;;4.57;;
23517;SDS011;11935;50.878;4.392;2023-04-15T06:58:55;7.60;;;4.65;;
23517;SDS011;11935;50.878;4.392;2023-04-15T07:01:21;15.35;;;4.70;;
23517;SDS011;11935;50.878;4.392;2023-04-15T07:03:48;7.32;;;4.22;;
23517;SDS011;11935;50.878;4.392;2023-04-15T07:06:14;9.65;;;3.58;;
23517;SDS011;11935;50.878;4.392;2023-04-15T07:08:39;9.85;;;5.03;;
23517;SDS011;11935;50.878;4.392;2023-04-15T07:11:06;9.10;;;4.22;;
23517;SDS011;11935;50.878;4.392;2023-04-15T07:13:32;9.18;;;5.07;;
23517;SDS011;11935;50.878;4.392;2023-04-15T07:15:58;10.65;;;4.65;;
23517;SDS011;11935;50.878;4.392;2023-04-15T07:18:24;8.20;;;4.60;;
23517;SDS011;11935;50.878;4.392;2023-04-15T07:20:50;10.88;;;4.47;;
23517;SDS011;11935;50.878;4.392;2023-04-15T07:23:17;10.57;;;5.30;;
23517;SDS011;11935;50.878;4.392;2023-04-15T07:25:43;11.57;;;4.18;;
23517;SDS011;11935;50.878;4.392;2023-04-15T07:28:09;10.73;;;5.15;;
23517;SDS011;11935;50.878;4.392;2023-04-15T07:30:35;7.82;;;4.50;;
23517;SDS011;11935;50.878;4.392;2023-04-15T07:33:01;9.38;;;5.05;;
23517;SDS011;11935;50.878;4.392;2023-04-15T07:35:27;8.60;;;4.88;;
23517;SDS011;11935;50.878;4.392;2023-04-15T07:37:54;9.60;;;4.38;;
23517;SDS011;11935;50.878;4.392;2023-04-15T07:40:20;8.27;;;4.78;;
23517;SDS011;11935;50.878;4.392;2023-04-15T07:42:46;7.85;;;4.60;;
23517;SDS011;11935;50.878;4.392;2023-04-15T07:45:13;11.20;;;5.07;;
23517;SDS011;11935;50.878;4.392;2023-04-15T07:47:40;9.48;;;5.32;;
23517;SDS011;11935;50.878;4.392;2023-04-15T07:50:06;10.30;;;5.10;;
23517;SDS011;11935;50.878;4.392;2023-04-15T07:52:33;11.57;;;5.15;;
23517;SDS011;11935;50.878;4.392;2023-04-15T07:55:04;11.07;;;6.10;;
23517;SDS011;11935;50.878;4.392;2023-04-15T07:57:31;8.60;;;6.00;;
23517;SDS011;11935;50.878;4.392;2023-04-15T07:59:57;8.73;;;6.28;;
23517;SDS011;11935;50.878;4.392;2023-04-15T08:02:23;11.95;;;6.35;;
23517;SDS011;11935;50.878;4.392;2023-04-15T08:04:49;10.63;;;6.45;;
23517;SDS011;11935;50.878;4.392;2023-04-15T08:07:17;15.93;;;6.95;;
23517;SDS011;11935;50.878;4.392;2023-04-15T08:09:43;13.07;;;6.30;;
23517;SDS011;11935;50.878;4.392;2023-04-15T08:12:09;10.88;;;5.38;;
23517;SDS011;11935;50.878;4.392;2023-04-15T08:14:37;9.32;;;6.13;;
23517;SDS011;11935;50.878;4.392;2023-04-15T08:17:03;13.57;;;7.32;;
23517;SDS011;11935;50.878;4.392;2023-04-15T08:19:31;11.60;;;6.30;;
23517;SDS011;11935;50.878;4.392;2023-04-15T08:21:57;13.70;;;6.40;;
23517;SDS011;11935;50.878;4.392;2023-04-15T08:24:23;16.17;;;6.45;;
23517;SDS011;11935;50.878;4.392;2023-04-15T08:26:50;13.15;;;6.97;;
23517;SDS011;11935;50.878;4.392;2023-04-15T08:29:16;9.50;;;4.72;;
23517;SDS011;11935;50.878;4.392;2023-04-15T08:31:42;9.90;;;6.93;;
23517;SDS011;11935;50.878;4.392;2023-04-15T08:34:09;9.57;;;6.32;;
23517;SDS011;11935;50.878;4.392;2023-04-15T08:36:36;13.33;;;7.30;;
23517;SDS011;11935;50.878;4.392;2023-04-15T08:39:02;13.70;;;6.90;;
23517;SDS011;11935;50.878;4.392;2023-04-15T08:41:30;8.85;;;5.45;;
23517;SDS011;11935;50.878;4.392;2023-04-15T08:44:03;7.40;;;5.38;;
23517;SDS011;11935;50.878;4.392;2023-04-15T08:46:30;13.85;;;6.60;;
23517;SDS011;11935;50.878;4.392;2023-04-15T08:48:58;10.02;;;6.65;;
23517;SDS011;11935;50.878;4.392;2023-04-15T08:51:25;7.75;;;4.07;;
23517;SDS011;11935;50.878;4.392;2023-04-15T08:53:51;2.85;;;2.30;;
23517;SDS011;11935;50.878;4.392;2023-04-15T08:56:17;12.48;;;5.72;;
23517;SDS011;11935;50.878;4.392;2023-04-15T08:58:45;7.93;;;6.05;;
23517;SDS011;11935;50.878;4.392;2023-04-15T09:01:12;10.10;;;6.57;;
23517;SDS011;11935;50.878;4.392;2023-04-15T09:03:38;12.25;;;7.38;;
23517;SDS011;11935;50.878;4.392;2023-04-15T09:06:05;14.52;;;7.18;;
23517;SDS011;11935;50.878;4.392;2023-04-15T09:08:31;10.23;;;6.80;;
23517;SDS011;11935;50.878;4.392;2023-04-15T09:11:03;10.98;;;6.95;;
23517;SDS011;11935;50.878;4.392;2023-04-15T09:13:29;11.13;;;6.90;;
23517;SDS011;11935;50.878;4.392;2023-04-15T09:15:56;7.60;;;3.65;;
23517;SDS011;11935;50.878;4.392;2023-04-15T09:18:32;11.02;;;6.18;;
23517;SDS011;11935;50.878;4.392;2023-04-15T09:21:05;8.13;;;5.10;;
23517;SDS011;11935;50.878;4.392;2023-04-15T09:23:32;4.03;;;2.65;;
23517;SDS011;11935;50.878;4.392;2023-04-15T09:25:59;12.40;;;5.38;;
23517;SDS011;11935;50.878;4.392;2023-04-15T09:28:25;6.28;;;3.22;;
23517;SDS011;11935;50.878;4.392;2023-04-15T09:30:54;6.65;;;3.83;;
23517;SDS011;11935;50.878;4.392;2023-04-15T09:33:24;6.88;;;4.22;;
23517;SDS011;11935;50.878;4.392;2023-04-15T09:35:58;6.38;;;4.18;;
23517;SDS011;11935;50.878;4.392;2023-04-15T09:38:25;4.70;;;2.88;;
23517;SDS011;11935;50.878;4.392;2023-04-15T09:40:52;4.20;;;2.85;;
23517;SDS011;11935;50.878;4.392;2023-04-15T09:43:18;5.03;;;2.67;;
23517;SDS011;11935;50.878;4.392;2023-04-15T09:45:52;5.00;;;3.13;;
23517;SDS011;11935;50.878;4.392;2023-04-15T09:48:22;1.40;;;1.30;;
23517;SDS011;11935;50.878;4.392;2023-04-15T09:50:51;9.07;;;3.03;;
23517;SDS011;11935;50.878;4.392;2023-04-15T09:53:22;4.65;;;2.95;;
23517;SDS011;11935;50.878;4.392;2023-04-15T09:55:51;7.55;;;2.95;;
23517;SDS011;11935;50.878;4.392;2023-04-15T09:58:19;7.57;;;3.58;;
23517;SDS011;11935;50.878;4.392;2023-04-15T10:00:46;5.50;;;3.60;;
23517;SDS011;11935;50.878;4.392;2023-04-15T10:03:14;6.18;;;2.88;;
23517;SDS011;11935;50.878;4.392;2023-04-15T10:05:40;6.65;;;3.92;;
23517;SDS011;11935;50.878;4.392;2023-04-15T10:08:06;8.00;;;4.50;;
23517;SDS011;11935;50.878;4.392;2023-04-15T10:10:33;6.15;;;3.65;;
23517;SDS011;11935;50.878;4.392;2023-04-15T10:12:59;6.68;;;3.80;;
23517;SDS011;11935;50.878;4.392;2023-04-15T10:15:26;6.88;;;3.70;;
23517;SDS011;11935;50.878;4.392;2023-04-15T10:17:53;4.93;;;3.25;;
23517;SDS011;11935;50.878;4.392;2023-04-15T10:20:21;3.33;;;2.33;;
23517;SDS011;11935;50.878;4.392;2023-04-15T10:22:47;4.05;;;2.72;;
23517;SDS011;11935;50.878;4.392;2023-04-15T10:25:14;6.93;;;4.45;;
23517;SDS011;11935;50.878;4.392;2023-04-15T10:27:40;2.38;;;1.27;;
23517;SDS011;11935;50.878;4.392;2023-04-15T10:30:06;7.82;;;3.72;;
23517;SDS011;11935;50.878;4.392;2023-04-15T10:32:33;1.98;;;1.70;;
23517;SDS011;11935;50.878;4.392;2023-04-15T10:35:00;4.63;;;1.52;;
23517;SDS011;11935;50.878;4.392;2023-04-15T10:37:36;6.50;;;3.53;;
23517;SDS011;11935;50.878;4.392;2023-04-15T10:43:00;5.53;;;2.28;;
23517;SDS011;11935;50.878;4.392;2023-04-15T10:45:27;2.88;;;1.17;;
23517;SDS011;11935;50.878;4.392;2023-04-15T10:47:54;1.58;;;1.05;;
23517;SDS011;11935;50.878;4.392;2023-04-15T10:50:20;3.30;;;1.67;;
23517;SDS011;11935;50.878;4.392;2023-04-15T10:52:49;4.03;;;1.70;;
23517;SDS011;11935;50.878;4.392;2023-04-15T10:55:20;4.53;;;1.92;;
23517;SDS011;11935;50.878;4.392;2023-04-15T10:57:50;4.38;;;1.65;;
23517;SDS011;11935;50.878;4.392;2023-04-15T11:00:17;7.35;;;1.58;;
23517;SDS011;11935;50.878;4.392;2023-04-15T11:02:47;3.80;;;2.45;;
23517;SDS011;11935;50.878;4.392;2023-04-15T11:05:17;4.72;;;2.40;;
23517;SDS011;11935;50.878;4.392;2023-04-15T11:12:45;0.75;;;0.40;;
23517;SDS011;11935;50.878;4.392;2023-04-15T11:17:57;4.00;;;2.60;;
23517;SDS011;11935;50.878;4.392;2023-04-15T11:20:24;2.63;;;1.58;;
23517;SDS011;11935;50.878;4.392;2023-04-15T11:22:51;4.57;;;2.30;;
23517;SDS011;11935;50.878;4.392;2023-04-15T11:25:21;3.40;;;0.80;;
23517;SDS011;11935;50.878;4.392;2023-04-15T11:27:47;4.18;;;2.22;;
23517;SDS011;11935;50.878;4.392;2023-04-15T11:30:20;3.63;;;2.08;;
23517;SDS011;11935;50.878;4.392;2023-04-15T11:32:50;4.05;;;1.90;;
23517;SDS011;11935;50.878;4.392;2023-04-15T11:35:17;4.63;;;2.00;;
23517;SDS011;11935;50.878;4.392;2023-04-15T11:37:44;2.33;;;1.30;;
23517;SDS011;11935;50.878;4.392;2023-04-15T11:40:10;2.78;;;1.40;;
23517;SDS011;11935;50.878;4.392;2023-04-15T11:42:36;3.95;;;1.30;;
23517;SDS011;11935;50.878;4.392;2023-04-15T11:45:06;3.78;;;1.33;;
23517;SDS011;11935;50.878;4.392;2023-04-15T11:47:33;1.10;;;0.40;;
23517;SDS011;11935;50.878;4.392;2023-04-15T11:50:13;1.40;;;0.90;;
23517;SDS011;11935;50.878;4.392;2023-04-15T11:52:40;1.00;;;0.90;;
23517;SDS011;11935;50.878;4.392;2023-04-15T11:55:06;4.65;;;1.45;;
23517;SDS011;11935;50.878;4.392;2023-04-15T11:57:33;4.10;;;2.22;;
23517;SDS011;11935;50.878;4.392;2023-04-15T11:59:59;3.45;;;1.88;;
23517;SDS011;11935;50.878;4.392;2023-04-15T12:02:31;2.10;;;1.83;;
23517;SDS011;11935;50.878;4.392;2023-04-15T12:05:07;2.40;;;1.40;;
23517;SDS011;11935;50.878;4.392;2023-04-15T12:07:56;2.40;;;1.35;;
23517;SDS011;11935;50.878;4.392;2023-04-15T12:10:19;2.15;;;1.65;;
23517;SDS011;11935;50.878;4.392;2023-04-15T12:12:48;2.85;;;1.20;;
23517;SDS011;11935;50.878;4.392;2023-04-15T12:15:14;4.57;;;2.08;;
23517;SDS011;11935;50.878;4.392;2023-04-15T12:17:40;2.20;;;1.55;;
23517;SDS011;11935;50.878;4.392;2023-04-15T12:20:07;3.65;;;1.83;;
23517;SDS011;11935;50.878;4.392;2023-04-15T12:22:36;2.28;;;1.45;;
23517;SDS011;11935;50.878;4.392;2023-04-15T12:25:02;2.95;;;1.42;;
23517;SDS011;11935;50.878;4.392;2023-04-15T12:27:30;2.47;;;0.88;;
23517;SDS011;11935;50.878;4.392;2023-04-15T12:30:03;3.08;;;1.60;;
23517;SDS011;11935;50.878;4.392;2023-04-15T12:32:29;2.72;;;1.85;;
23517;SDS011;11935;50.878;4.392;2023-04-15T12:34:59;3.22;;;1.45;;
23517;SDS011;11935;50.878;4.392;2023-04-15T12:37:26;6.95;;;1.58;;
23517;SDS011;11935;50.878;4.392;2023-04-15T12:39:52;2.88;;;1.52;;
23517;SDS011;11935;50.878;4.392;2023-04-15T12:42:18;3.13;;;1.48;;
23517;SDS011;11935;50.878;4.392;2023-04-15T12:44:45;6.13;;;1.40;;
23517;SDS011;11935;50.878;4.392;2023-04-15T12:47:11;2.67;;;1.48;;
23517;SDS011;11935;50.878;4.392;2023-04-15T12:49:37;5.13;;;1.48;;
23517;SDS011;11935;50.878;4.392;2023-04-15T12:52:04;2.43;;;1.30;;
23517;SDS011;11935;50.878;4.392;2023-04-15T12:54:30;4.30;;;1.70;;
23517;SDS011;11935;50.878;4.392;2023-04-15T12:56:57;1.38;;;1.00;;
23517;SDS011;11935;50.878;4.392;2023-04-15T12:59:25;1.92;;;1.35;;
23517;SDS011;11935;50.878;4.392;2023-04-15T13:01:51;3.95;;;1.58;;
23517;SDS011;11935;50.878;4.392;2023-04-15T13:04:17;4.05;;;1.30;;
23517;SDS011;11935;50.878;4.392;2023-04-15T13:06:43;1.50;;;1.20;;
23517;SDS011;11935;50.878;4.392;2023-04-15T13:09:10;4.25;;;1.02;;
23517;SDS011;11935;50.878;4.392;2023-04-15T13:11:36;2.72;;;1.75;;
23517;SDS011;11935;50.878;4.392;2023-04-15T13:14:06;3.38;;;1.80;;
23517;SDS011;11935;50.878;4.392;2023-04-15T13:16:32;2.08;;;1.00;;
23517;SDS011;11935;50.878;4.392;2023-04-15T13:18:59;3.70;;;1.60;;
23517;SDS011;11935;50.878;4.392;2023-04-15T13:21:25;3.58;;;1.55;;
23517;SDS011;11935;50.878;4.392;2023-04-15T13:23:52;2.20;;;1.15;;
23517;SDS011;11935;50.878;4.392;2023-04-15T13:26:18;2.72;;;1.88;;
23517;SDS011;11935;50.878;4.392;2023-04-15T13:28:44;2.90;;;1.40;;
23517;SDS011;11935;50.878;4.392;2023-04-15T13:31:10;2.63;;;1.67;;
23517;SDS011;11935;50.878;4.392;2023-04-15T13:33:36;4.07;;;1.38;;
23517;SDS011;11935;50.878;4.392;2023-04-15T13:36:02;1.35;;;0.85;;
23517;SDS011;11935;50.878;4.392;2023-04-15T13:38:28;4.13;;;1.23;;
23517;SDS011;11935;50.878;4.392;2023-04-15T13:40:54;4.88;;;1.50;;
23517;SDS011;11935;50.878;4.392;2023-04-15T13:43:20;2.50;;;1.38;;
23517;SDS011;11935;50.878;4.392;2023-04-15T13:45:47;3.67;;;1.20;;
23517;SDS011;11935;50.878;4.392;2023-04-15T13:48:13;2.88;;;1.15;;
23517;SDS011;11935;50.878;4.392;2023-04-15T13:50:39;3.00;;;0.90;;
23517;SDS011;11935;50.878;4.392;2023-04-15T13:53:09;0.88;;;0.60;;
23517;SDS011;11935;50.878;4.392;2023-04-15T13:55:35;3.72;;;1.30;;
23517;SDS011;11935;50.878;4.392;2023-04-15T13:58:05;0.68;;;0.60;;
23517;SDS011;11935;50.878;4.392;2023-04-15T14:00:31;2.78;;;1.13;;
23517;SDS011;11935;50.878;4.392;2023-04-15T14:02:57;1.90;;;0.73;;
23517;SDS011;11935;50.878;4.392;2023-04-15T14:05:23;0.85;;;0.55;;
23517;SDS011;11935;50.878;4.392;2023-04-15T14:07:49;1.30;;;0.52;;
23517;SDS011;11935;50.878;4.392;2023-04-15T14:10:15;3.55;;;1.23;;
23517;SDS011;11935;50.878;4.392;2023-04-15T14:12:41;3.08;;;1.25;;
23517;SDS011;11935;50.878;4.392;2023-04-15T14:15:07;1.52;;;0.95;;
23517;SDS011;11935;50.878;4.392;2023-04-15T14:17:33;3.83;;;1.38;;
23517;SDS011;11935;50.878;4.392;2023-04-15T14:19:59;6.85;;;1.45;;
23517;SDS011;11935;50.878;4.392;2023-04-15T14:22:25;2.40;;;0.77;;
23517;SDS011;11935;50.878;4.392;2023-04-15T14:24:51;3.65;;;0.85;;
23517;SDS011;11935;50.878;4.392;2023-04-15T14:27:19;1.13;;;0.75;;
23517;SDS011;11935;50.878;4.392;2023-04-15T14:29:45;0.57;;;0.50;;
23517;SDS011;11935;50.878;4.392;2023-04-15T14:32:11;3.58;;;2.03;;
23517;SDS011;11935;50.878;4.392;2023-04-15T14:34:38;3.08;;;1.70;;
23517;SDS011;11935;50.878;4.392;2023-04-15T14:37:04;4.72;;;1.25;;
23517;SDS011;11935;50.878;4.392;2023-04-15T14:39:30;0.98;;;0.52;;
23517;SDS011;11935;50.878;4.392;2023-04-15T14:41:56;2.25;;;0.60;;
23517;SDS011;11935;50.878;4.392;2023-04-15T14:44:22;0.95;;;0.52;;
23517;SDS011;11935;50.878;4.392;2023-04-15T14:46:48;1.45;;;0.65;;
23517;SDS011;11935;50.878;4.392;2023-04-15T14:49:15;1.15;;;0.68;;
23517;SDS011;11935;50.878;4.392;2023-04-15T14:51:41;1.38;;;0.88;;